createdAt,value
2018-12-27T00:00:25.766Z,82.67
2018-12-27T00:02:56.304Z,83.55
2018-12-27T00:05:26.718Z,83.02
2018-12-27T00:07:57.168Z,83.79
2018-12-27T00:10:27.512Z,83.32
2018-12-27T00:12:57.862Z,83.46
2018-12-27T00:15:28.354Z,83.40
2018-12-27T00:17:58.747Z,83.43
2018-12-27T00:20:29.099Z,83.14
2018-12-27T00:22:59.741Z,83.81
2018-12-27T00:25:30.024Z,84.63
2018-12-27T00:28:00.399Z,83.56
2018-12-27T00:30:30.902Z,83.90
2018-12-27T00:33:03.259Z,84.11
2018-12-27T00:35:33.867Z,83.61
2018-12-27T00:38:04.544Z,84.37
2018-12-27T00:40:35.027Z,83.91
2018-12-27T00:43:05.434Z,84.63
2018-12-27T00:45:35.857Z,84.17
2018-12-27T00:48:06.538Z,84.65
2018-12-27T00:50:36.938Z,84.41
2018-12-27T00:53:07.639Z,84.56
2018-12-27T00:55:38.041Z,84.97
2018-12-27T00:58:08.436Z,84.59
2018-12-27T01:00:39.117Z,84.64
2018-12-27T01:03:11.254Z,84.88
2018-12-27T01:05:42.329Z,84.90
2018-12-27T01:08:12.731Z,84.95
2018-12-27T01:10:43.647Z,84.65
2018-12-27T01:13:14.391Z,84.57
2018-12-27T01:15:45.399Z,85.09
2018-12-27T01:18:16.386Z,84.82
2018-12-27T01:20:47.090Z,84.59
2018-12-27T01:23:17.503Z,84.24
2018-12-27T01:25:47.934Z,84.56
2018-12-27T01:28:18.352Z,83.99
2018-12-27T01:30:49.013Z,84.26
2018-12-27T01:33:19.422Z,83.76
2018-12-27T01:35:49.848Z,83.96
2018-12-27T01:38:20.274Z,84.18
2018-12-27T01:40:50.718Z,84.09
2018-12-27T01:43:21.463Z,84.21
2018-12-27T01:45:51.869Z,86.30
2018-12-27T01:48:22.281Z,83.90
2018-12-27T01:50:52.722Z,84.06
2018-12-27T01:53:23.144Z,83.26
2018-12-27T01:55:53.542Z,83.93
2018-12-27T01:58:23.993Z,83.56
2018-12-27T02:00:54.432Z,84.20
2018-12-27T02:03:26.599Z,84.37
2018-12-27T02:05:57.726Z,83.87
2018-12-27T02:08:28.136Z,84.08
2018-12-27T02:10:58.862Z,83.45
2018-12-27T02:13:29.297Z,84.22
2018-12-27T02:15:59.705Z,83.08
2018-12-27T02:18:30.523Z,82.84
2018-12-27T02:21:01.209Z,83.22
2018-12-27T02:23:31.610Z,83.37
2018-12-27T02:26:02.348Z,83.44
2018-12-27T02:28:32.798Z,83.11
2018-12-27T02:31:03.230Z,83.60
2018-12-27T02:33:35.294Z,83.45
2018-12-27T02:36:05.816Z,82.97
2018-12-27T02:38:36.274Z,82.83
2018-12-27T02:41:06.974Z,81.79
2018-12-27T02:43:37.425Z,82.44
2018-12-27T02:46:08.163Z,82.74
2018-12-27T02:48:38.672Z,82.28
2018-12-27T02:51:09.128Z,82.38
2018-12-27T02:53:39.522Z,82.26
2018-12-27T02:56:09.954Z,83.60
2018-12-27T02:58:40.428Z,83.08
2018-12-27T03:01:10.875Z,81.77
2018-12-27T03:03:44.067Z,82.22
2018-12-27T03:06:13.423Z,81.06
2018-12-27T03:08:43.875Z,82.50
2018-12-27T03:11:14.611Z,81.67
2018-12-27T03:13:45.605Z,81.61
2018-12-27T03:16:16.050Z,82.01
2018-12-27T03:18:46.466Z,82.06
2018-12-27T03:21:16.965Z,82.51
2018-12-27T03:23:47.363Z,82.48
2018-12-27T03:26:17.827Z,82.28
2018-12-27T03:28:48.474Z,82.76
2018-12-27T03:31:18.889Z,83.42
2018-12-27T03:33:52.787Z,84.17
2018-12-27T03:36:21.717Z,84.24
2018-12-27T03:38:53.205Z,83.63
2018-12-27T03:41:23.628Z,82.53
2018-12-27T03:43:54.055Z,83.93
2018-12-27T03:46:24.754Z,84.14
2018-12-27T03:48:55.174Z,84.07
2018-12-27T03:51:25.598Z,83.02
2018-12-27T03:53:56.270Z,83.25
2018-12-27T03:56:26.693Z,83.71
2018-12-27T03:58:57.125Z,82.52
2018-12-27T04:01:27.594Z,82.57
2018-12-27T04:04:01.548Z,83.51
2018-12-27T04:06:30.182Z,82.77
2018-12-27T04:09:00.619Z,83.27
2018-12-27T04:11:31.286Z,84.14
2018-12-27T04:14:02.286Z,83.11
2018-12-27T04:16:32.488Z,83.27
2018-12-27T04:19:03.095Z,83.25
2018-12-27T04:21:33.547Z,83.13
2018-12-27T04:24:04.860Z,83.97
2018-12-27T04:26:35.231Z,83.16
2018-12-27T04:29:05.553Z,83.04
2018-12-27T04:31:36.183Z,82.34
2018-12-27T04:34:09.652Z,82.18
2018-12-27T04:36:40.644Z,82.14
2018-12-27T04:39:11.195Z,82.32
2018-12-27T04:41:42.339Z,82.20
2018-12-27T04:44:13.202Z,82.24
2018-12-27T04:46:43.478Z,81.98
2018-12-27T04:49:13.834Z,82.59
2018-12-27T04:51:44.210Z,82.01
2018-12-27T04:54:14.715Z,82.00
2018-12-27T04:56:45.059Z,82.10
2018-12-27T04:59:15.291Z,82.20
2018-12-27T05:01:45.485Z,81.95
2018-12-27T05:04:18.257Z,82.74
2018-12-27T05:06:48.095Z,83.83
2018-12-27T05:09:18.559Z,83.43
2018-12-27T05:11:48.938Z,84.77
2018-12-27T05:14:19.508Z,82.88
2018-12-27T05:16:50.042Z,82.81
2018-12-27T05:19:20.547Z,83.87
2018-12-27T05:21:51.154Z,84.46
2018-12-27T05:24:21.377Z,83.88
2018-12-27T05:26:51.726Z,83.67
2018-12-27T05:29:22.046Z,83.07
2018-12-27T05:31:52.698Z,83.24
2018-12-27T05:34:26.315Z,83.70
2018-12-27T05:36:55.138Z,83.34
2018-12-27T05:39:25.890Z,83.34
2018-12-27T05:41:56.343Z,83.05
2018-12-27T05:44:26.697Z,83.26
2018-12-27T05:46:57.079Z,83.88
2018-12-27T05:49:27.473Z,83.74
2018-12-27T05:51:58.002Z,83.52
2018-12-27T05:54:28.598Z,84.04
2018-12-27T05:56:58.906Z,84.14
2018-12-27T05:59:29.294Z,84.20
2018-12-27T06:01:59.574Z,83.71
2018-12-27T06:04:33.726Z,83.62
2018-12-27T06:07:02.283Z,83.92
2018-12-27T06:09:32.581Z,84.21
2018-12-27T06:12:03.167Z,84.75
2018-12-27T06:14:33.556Z,84.67
2018-12-27T06:17:03.993Z,84.77
2018-12-27T06:19:34.400Z,84.71
2018-12-27T06:22:05.112Z,85.31
2018-12-27T06:24:35.459Z,85.11
2018-12-27T06:27:06.043Z,85.31
2018-12-27T06:29:36.355Z,85.51
2018-12-27T06:32:07.035Z,85.78
2018-12-27T06:34:41.312Z,85.67
2018-12-27T06:37:09.711Z,85.91
2018-12-27T06:39:40.242Z,86.41
2018-12-27T06:42:10.635Z,85.87
2018-12-27T06:44:41.091Z,86.24
2018-12-27T06:47:11.372Z,86.58
2018-12-27T06:49:41.686Z,87.09
2018-12-27T06:52:12.188Z,87.24
2018-12-27T06:54:43.046Z,86.99
2018-12-27T06:57:13.653Z,86.93
2018-12-27T06:59:43.956Z,87.02
2018-12-27T07:02:15.087Z,87.08
2018-12-27T07:04:48.904Z,88.38
2018-12-27T07:07:17.516Z,87.48
2018-12-27T07:09:48.057Z,87.14
2018-12-27T07:12:18.332Z,87.13
2018-12-27T07:14:48.791Z,86.86
2018-12-27T07:17:19.327Z,86.86
2018-12-27T07:19:49.994Z,86.60
2018-12-27T07:22:20.605Z,86.37
2018-12-27T07:24:50.845Z,87.62
2018-12-27T07:27:21.220Z,89.61
2018-12-27T07:29:51.961Z,87.15
2018-12-27T07:32:22.241Z,85.23
2018-12-27T07:34:56.412Z,85.09
2018-12-27T07:37:24.776Z,84.37
2018-12-27T07:39:55.346Z,84.60
2018-12-27T07:42:26.127Z,84.35
2018-12-27T07:44:56.584Z,83.65
2018-12-27T07:47:27.723Z,84.00
2018-12-27T07:49:58.666Z,84.17
2018-12-27T07:52:29.670Z,83.16
2018-12-27T07:55:00.587Z,83.62
2018-12-27T07:57:31.412Z,82.54
2018-12-27T08:00:02.060Z,83.01
2018-12-27T08:02:32.361Z,82.74
2018-12-27T08:05:04.327Z,82.54
2018-12-27T08:07:34.929Z,82.65
2018-12-27T08:10:06.047Z,82.13
2018-12-27T08:12:40.082Z,81.54
2018-12-27T08:15:10.864Z,80.62
2018-12-27T08:17:41.256Z,80.42
2018-12-27T08:20:11.811Z,80.37
2018-12-27T08:22:42.376Z,79.62
2018-12-27T08:25:12.758Z,79.27
2018-12-27T08:27:43.079Z,81.22
2018-12-27T08:30:13.540Z,78.95
2018-12-27T08:32:44.177Z,79.52
2018-12-27T08:35:14.588Z,79.65
2018-12-27T08:37:46.014Z,78.85
2018-12-27T08:40:17.070Z,78.17
2018-12-27T08:42:47.605Z,79.23
2018-12-27T08:45:17.925Z,78.17
2018-12-27T08:47:48.295Z,78.06
2018-12-27T08:50:19.682Z,77.66
2018-12-27T08:52:50.075Z,78.77
2018-12-27T08:55:20.674Z,78.55
2018-12-27T08:57:51.593Z,78.09
2018-12-27T09:00:22.480Z,78.53
2018-12-27T09:02:53.155Z,78.91
2018-12-27T09:05:24.484Z,78.51
2018-12-27T09:07:54.895Z,78.08
2018-12-27T09:10:25.381Z,78.35
2018-12-27T09:12:55.779Z,77.61
2018-12-27T09:15:26.505Z,77.02
2018-12-27T09:17:56.891Z,78.03
2018-12-27T09:20:27.632Z,76.47
2018-12-27T09:22:57.993Z,76.05
2018-12-27T09:25:28.444Z,75.15
2018-12-27T09:27:58.768Z,74.45
2018-12-27T09:30:29.136Z,74.63
2018-12-27T09:32:59.493Z,73.80
2018-12-27T09:35:30.576Z,73.13
2018-12-27T09:38:00.943Z,71.88
2018-12-27T09:40:31.404Z,72.67
2018-12-27T09:43:01.716Z,71.69
2018-12-27T09:45:32.280Z,70.71
2018-12-27T09:48:02.742Z,70.59
2018-12-27T09:50:33.057Z,70.07
2018-12-27T09:53:03.480Z,70.37
2018-12-27T09:55:33.856Z,71.76
2018-12-27T09:58:04.329Z,71.24
2018-12-27T10:00:34.611Z,69.64
2018-12-27T10:03:05.050Z,68.34
2018-12-27T10:05:35.283Z,67.61
2018-12-27T10:08:05.949Z,67.94
2018-12-27T10:10:36.486Z,66.78
2018-12-27T10:13:07.049Z,70.41
2018-12-27T10:15:37.664Z,69.41
2018-12-27T10:18:08.032Z,69.21
2018-12-27T10:20:38.444Z,68.60
2018-12-27T10:23:08.830Z,68.92
2018-12-27T10:25:39.475Z,68.53
2018-12-27T10:28:10.141Z,66.92
2018-12-27T10:30:40.520Z,67.15
2018-12-27T10:33:11.101Z,66.83
2018-12-27T10:35:41.498Z,65.82
2018-12-27T10:38:11.875Z,66.28
2018-12-27T10:40:42.231Z,66.48
2018-12-27T10:43:12.751Z,67.80
2018-12-27T10:45:45.147Z,67.93
2018-12-27T10:48:16.709Z,67.97
2018-12-27T10:50:47.633Z,67.29
2018-12-27T10:53:18.206Z,67.51
2018-12-27T10:55:48.604Z,66.81
2018-12-27T10:58:19.237Z,68.07
2018-12-27T11:00:50.237Z,67.93
2018-12-27T11:03:20.705Z,67.40
2018-12-27T11:05:51.317Z,67.07
2018-12-27T11:08:22.090Z,65.42
2018-12-27T11:10:52.403Z,66.67
2018-12-27T11:13:22.855Z,64.43
2018-12-27T11:15:53.298Z,64.07
2018-12-27T11:18:23.693Z,63.21
2018-12-27T11:20:54.150Z,62.92
2018-12-27T11:23:24.445Z,64.36
2018-12-27T11:25:56.180Z,61.18
2018-12-27T11:28:26.575Z,59.77
2018-12-27T11:30:58.093Z,58.71
2018-12-27T11:33:28.513Z,61.25
2018-12-27T11:35:59.124Z,60.12
2018-12-27T11:38:29.418Z,61.11
2018-12-27T11:40:59.878Z,61.09
2018-12-27T11:43:30.295Z,60.66
2018-12-27T11:46:00.574Z,61.55
2018-12-27T11:48:31.347Z,62.79
2018-12-27T11:51:02.085Z,62.65
2018-12-27T11:53:32.506Z,63.61
2018-12-27T11:56:03.253Z,61.64
2018-12-27T11:58:34.216Z,62.40
2018-12-27T12:01:04.682Z,62.27
2018-12-27T12:03:35.221Z,63.67
2018-12-27T12:06:05.679Z,63.20
2018-12-27T12:08:36.082Z,62.26
2018-12-27T12:11:06.870Z,64.67
2018-12-27T12:13:38.691Z,62.56
2018-12-27T12:16:09.196Z,61.74
2018-12-27T12:18:39.698Z,61.24
2018-12-27T12:21:10.126Z,63.93
2018-12-27T12:23:40.672Z,60.87
2018-12-27T12:26:11.175Z,60.58
2018-12-27T12:28:41.678Z,59.59
2018-12-27T12:31:12.436Z,60.12
2018-12-27T12:33:42.916Z,58.91
2018-12-27T12:36:13.464Z,59.08
2018-12-27T12:38:43.921Z,61.21
2018-12-27T12:41:14.510Z,60.75
2018-12-27T12:43:45.126Z,60.51
2018-12-27T12:46:15.981Z,62.37
2018-12-27T12:48:47.068Z,63.29
2018-12-27T12:51:17.597Z,62.39
2018-12-27T12:53:48.497Z,62.43
2018-12-27T12:56:19.047Z,62.28
2018-12-27T12:58:49.666Z,62.63
2018-12-27T13:01:20.107Z,62.36
2018-12-27T13:03:50.601Z,64.51
2018-12-27T13:06:21.130Z,63.34
2018-12-27T13:08:51.878Z,62.83
2018-12-27T13:11:22.513Z,64.96
2018-12-27T13:13:53.045Z,64.70
2018-12-27T13:16:23.493Z,63.64
2018-12-27T13:18:54.049Z,65.03
2018-12-27T13:21:24.788Z,65.17
2018-12-27T13:23:55.417Z,64.63
2018-12-27T13:26:25.983Z,64.39
2018-12-27T13:28:56.307Z,66.93
2018-12-27T13:31:26.754Z,66.78
2018-12-27T13:33:57.244Z,66.66
2018-12-27T13:36:27.924Z,67.28
2018-12-27T13:38:58.520Z,67.46
2018-12-27T13:41:28.874Z,68.09
2018-12-27T13:43:59.383Z,68.09
2018-12-27T13:46:30.201Z,67.95
2018-12-27T13:49:01.104Z,67.52
2018-12-27T13:51:31.523Z,68.21
2018-12-27T13:54:02.287Z,67.75
2018-12-27T13:56:33.125Z,65.01
2018-12-27T13:59:03.976Z,65.67
2018-12-27T14:01:34.544Z,65.97
2018-12-27T14:04:05.031Z,66.24
2018-12-27T14:06:35.754Z,65.20
2018-12-27T14:09:08.375Z,64.61
2018-12-27T14:11:39.038Z,64.68
2018-12-27T14:14:09.626Z,64.02
2018-12-27T14:16:40.251Z,64.08
2018-12-27T14:19:10.639Z,64.23
2018-12-27T14:21:41.055Z,63.72
2018-12-27T14:24:11.371Z,64.87
2018-12-27T14:26:42.195Z,64.81
2018-12-27T14:29:12.583Z,64.70
2018-12-27T14:31:43.174Z,64.48
2018-12-27T14:34:14.000Z,66.89
2018-12-27T14:36:44.283Z,65.88
2018-12-27T14:39:15.135Z,65.53
2018-12-27T14:41:45.746Z,65.88
2018-12-27T14:44:16.014Z,66.88
2018-12-27T14:46:46.428Z,66.36
2018-12-27T14:49:16.689Z,65.97
2018-12-27T14:51:46.927Z,66.50
2018-12-27T14:54:17.272Z,67.74
2018-12-27T14:56:47.524Z,67.65
2018-12-27T14:59:18.212Z,66.80
2018-12-27T15:01:48.650Z,66.80
2018-12-27T15:04:19.445Z,67.68
2018-12-27T15:06:49.910Z,67.25
2018-12-27T15:09:20.425Z,67.63
2018-12-27T15:11:50.579Z,67.96
2018-12-27T15:14:23.056Z,67.85
2018-12-27T15:16:53.587Z,68.34
2018-12-27T15:19:23.967Z,68.51
2018-12-27T15:21:54.304Z,68.81
2018-12-27T15:24:25.073Z,69.51
2018-12-27T15:26:55.374Z,70.05
2018-12-27T15:29:25.704Z,70.86
2018-12-27T15:31:56.040Z,70.93
2018-12-27T15:34:26.343Z,71.37
2018-12-27T15:36:56.969Z,72.17
2018-12-27T15:39:27.337Z,73.29
2018-12-27T15:41:57.682Z,72.61
2018-12-27T15:44:27.991Z,73.09
2018-12-27T15:46:58.351Z,74.06
2018-12-27T15:49:29.065Z,73.42
2018-12-27T15:51:59.695Z,73.97
2018-12-27T15:54:30.026Z,75.26
2018-12-27T15:57:00.471Z,75.52
2018-12-27T15:59:30.813Z,76.23
2018-12-27T16:02:01.224Z,76.39
2018-12-27T16:04:31.901Z,76.69
2018-12-27T16:07:02.469Z,77.12
2018-12-27T16:09:33.054Z,77.43
2018-12-27T16:12:03.437Z,77.70
2018-12-27T16:14:33.755Z,78.11
2018-12-27T16:17:04.573Z,78.03
2018-12-27T16:19:35.485Z,78.32
2018-12-27T16:22:05.855Z,78.26
2018-12-27T16:24:36.366Z,78.99
2018-12-27T16:27:08.342Z,79.33
2018-12-27T16:29:39.195Z,79.56
2018-12-27T16:32:10.768Z,79.97
2018-12-27T16:34:41.517Z,80.76
2018-12-27T16:37:11.983Z,80.90
2018-12-27T16:39:42.586Z,81.08
2018-12-27T16:42:13.073Z,81.23
2018-12-27T16:44:43.436Z,81.31
2018-12-27T16:47:16.438Z,81.61
2018-12-27T16:49:47.033Z,81.95
2018-12-27T16:52:17.411Z,82.28
2018-12-27T16:54:48.455Z,82.46
2018-12-27T16:57:19.779Z,82.90
2018-12-27T16:59:50.650Z,83.04
2018-12-27T17:02:21.146Z,83.02
2018-12-27T17:04:51.456Z,83.00
2018-12-27T17:07:22.544Z,81.92
2018-12-27T17:09:52.903Z,82.13
2018-12-27T17:12:23.573Z,81.56
2018-12-27T17:14:54.024Z,81.76
2018-12-27T17:17:26.396Z,81.53
2018-12-27T17:19:57.036Z,81.37
2018-12-27T17:22:30.085Z,81.12
2018-12-27T17:25:00.601Z,80.86
2018-12-27T17:27:34.114Z,81.00
2018-12-27T17:30:07.880Z,82.45
2018-12-27T17:32:38.733Z,82.48
2018-12-27T17:35:09.480Z,82.58
2018-12-27T17:37:51.906Z,82.93
2018-12-27T17:40:22.330Z,83.11
2018-12-27T17:42:52.685Z,83.59
2018-12-27T17:45:23.012Z,84.09
2018-12-27T17:47:53.478Z,83.88
2018-12-27T17:50:24.046Z,83.78
2018-12-27T17:52:54.535Z,82.48
2018-12-27T17:55:25.225Z,81.09
2018-12-27T17:57:55.681Z,79.57
2018-12-27T18:00:26.046Z,77.95
2018-12-27T18:02:56.412Z,78.51
2018-12-27T18:05:26.888Z,78.44
2018-12-27T18:07:57.295Z,78.54
2018-12-27T18:10:28.149Z,78.04
2018-12-27T18:13:06.498Z,76.76
2018-12-27T18:15:36.997Z,76.55
2018-12-27T18:18:07.381Z,77.02
2018-12-27T18:20:38.324Z,77.31
2018-12-27T18:23:08.963Z,77.48
2018-12-27T18:25:39.680Z,77.95
2018-12-27T18:28:10.233Z,78.47
2018-12-27T18:30:40.877Z,78.63
2018-12-27T18:33:11.633Z,78.42
2018-12-27T18:35:42.807Z,78.11
2018-12-27T18:38:13.495Z,78.76
2018-12-27T18:40:47.255Z,79.09
2018-12-27T18:43:17.685Z,78.93
2018-12-27T18:45:56.282Z,79.06
2018-12-27T18:48:27.085Z,79.59
2018-12-27T18:51:00.548Z,79.29
2018-12-27T18:53:30.924Z,78.78
2018-12-27T18:56:04.641Z,78.55
2018-12-27T18:58:35.752Z,77.84
2018-12-27T19:01:28.905Z,78.01
2018-12-27T19:03:59.388Z,78.47
2018-12-27T19:06:29.910Z,78.67
2018-12-27T19:09:00.394Z,77.56
2018-12-27T19:12:24.744Z,77.74
2018-12-27T19:15:01.448Z,78.46
2018-12-27T19:17:52.540Z,79.92
2018-12-27T19:20:23.007Z,78.42
2018-12-27T19:23:24.522Z,78.15
2018-12-27T19:25:54.878Z,76.89
2018-12-27T19:28:26.635Z,78.95
2018-12-27T19:30:57.457Z,79.90
2018-12-27T19:33:31.809Z,79.98
2018-12-27T19:36:02.177Z,80.57
2018-12-27T19:38:32.410Z,82.16
2018-12-27T19:41:02.778Z,80.43
2018-12-27T19:43:33.591Z,79.53
2018-12-27T19:46:04.156Z,80.55
2018-12-27T19:48:34.558Z,78.15
2018-12-27T19:51:05.393Z,78.14
2018-12-27T19:53:36.179Z,78.17
2018-12-27T19:56:06.949Z,78.43
2018-12-27T19:58:38.180Z,78.81
2018-12-27T20:01:08.826Z,78.63
2018-12-27T20:03:39.659Z,79.41
2018-12-27T20:06:12.156Z,80.19
2018-12-27T20:08:44.031Z,79.67
2018-12-27T20:11:15.657Z,80.28
2018-12-27T20:13:46.332Z,80.55
2018-12-27T20:16:17.132Z,80.37
2018-12-27T20:18:47.596Z,80.75
2018-12-27T20:21:17.903Z,81.28
2018-12-27T20:23:48.353Z,81.27
2018-12-27T20:26:19.212Z,80.72
2018-12-27T20:28:49.728Z,80.01
2018-12-27T20:31:20.938Z,80.87
2018-12-27T20:33:52.185Z,80.70
2018-12-27T20:36:23.060Z,80.50
2018-12-27T20:38:53.698Z,80.39
2018-12-27T20:41:24.236Z,80.97
2018-12-27T20:43:55.031Z,82.69
2018-12-27T20:46:25.889Z,81.83
2018-12-27T20:48:58.028Z,81.41
2018-12-27T20:51:28.689Z,80.55
2018-12-27T20:53:59.376Z,80.69
2018-12-27T20:56:33.152Z,80.46
2018-12-27T20:59:32.653Z,80.23
2018-12-27T21:02:03.398Z,80.59
2018-12-27T21:04:34.063Z,80.48
2018-12-27T21:07:04.505Z,80.99
2018-12-27T21:09:35.360Z,81.40
2018-12-27T21:12:06.301Z,81.26
2018-12-27T21:14:36.897Z,81.32
2018-12-27T21:17:07.698Z,81.82
2018-12-27T21:19:38.504Z,82.13
2018-12-27T21:22:09.048Z,82.74
2018-12-27T21:24:39.628Z,83.25
2018-12-27T21:27:13.155Z,83.29
2018-12-27T21:29:43.747Z,82.65
2018-12-27T21:32:14.645Z,82.30
2018-12-27T21:34:45.064Z,83.12
2018-12-27T21:37:15.669Z,83.04
2018-12-27T21:39:46.220Z,83.51
2018-12-27T21:42:17.093Z,83.85
2018-12-27T21:44:47.697Z,84.35
2018-12-27T21:47:18.249Z,84.16
2018-12-27T21:49:48.869Z,84.48
2018-12-27T21:52:28.243Z,84.21
2018-12-27T21:55:13.991Z,84.90
2018-12-27T21:57:50.300Z,84.71
2018-12-27T22:00:32.288Z,83.92
2018-12-27T22:03:02.794Z,83.95
2018-12-27T22:05:33.724Z,83.74
2018-12-27T22:08:04.891Z,84.11
2018-12-27T22:10:35.493Z,83.97
2018-12-27T22:13:06.125Z,83.99
2018-12-27T22:15:36.744Z,84.17
2018-12-27T22:18:07.234Z,83.98
2018-12-27T22:20:37.813Z,84.40
2018-12-27T22:23:08.416Z,84.37
2018-12-27T22:25:39.050Z,84.51
2018-12-27T22:28:09.666Z,84.21
2018-12-27T22:30:40.207Z,84.26
2018-12-27T22:33:11.029Z,85.28
2018-12-27T22:35:41.766Z,85.35
2018-12-27T22:38:12.376Z,85.80
2018-12-27T22:40:43.128Z,86.00
2018-12-27T22:43:13.683Z,86.45
2018-12-27T22:45:44.326Z,86.50
2018-12-27T22:48:15.169Z,86.46
2018-12-27T22:50:46.024Z,86.61
2018-12-27T22:53:16.758Z,86.16
2018-12-27T22:56:06.283Z,86.09
2018-12-27T22:58:36.707Z,85.91
2018-12-27T23:01:07.843Z,86.05
2018-12-27T23:03:38.301Z,85.88
2018-12-27T23:06:08.893Z,85.63
2018-12-27T23:08:43.042Z,84.85
2018-12-27T23:11:11.311Z,85.11
2018-12-27T23:13:41.672Z,84.63
2018-12-27T23:16:12.148Z,84.98
2018-12-27T23:18:42.563Z,84.73
2018-12-27T23:21:12.982Z,85.12
2018-12-27T23:23:43.429Z,84.94
2018-12-27T23:26:13.807Z,85.37
2018-12-27T23:28:44.069Z,85.40
2018-12-27T23:31:14.752Z,85.62
2018-12-27T23:33:45.191Z,85.49
2018-12-27T23:36:15.664Z,85.30
2018-12-27T23:38:50.249Z,85.59
2018-12-27T23:41:18.008Z,85.79
2018-12-27T23:43:48.287Z,85.55
2018-12-27T23:46:18.750Z,86.04
2018-12-27T23:48:49.721Z,85.87
2018-12-27T23:51:20.463Z,85.59
2018-12-27T23:53:50.855Z,85.65
2018-12-27T23:56:21.287Z,86.12
2018-12-27T23:58:51.578Z,86.29
